createdAt,value
2022-12-09T00:01:16.833Z,18.33
2022-12-09T00:03:45.894Z,19.13
2022-12-09T00:06:17.933Z,19.50
2022-12-09T00:08:46.480Z,18.80
2022-12-09T00:11:15.015Z,18.50
2022-12-09T00:13:44.916Z,19.20
2022-12-09T00:16:15.619Z,18.30
2022-12-09T00:18:44.936Z,19.13
2022-12-09T00:21:15.202Z,18.40
2022-12-09T00:23:43.827Z,17.40
2022-12-09T00:26:12.449Z,19.00
2022-12-09T00:28:41.027Z,18.77
2022-12-09T00:31:15.632Z,18.80
2022-12-09T00:33:44.207Z,19.20
2022-12-09T00:36:14.625Z,18.03
2022-12-09T00:38:44.026Z,18.67
2022-12-09T00:41:12.839Z,19.10
2022-12-09T00:43:41.759Z,19.80
2022-12-09T00:46:12.110Z,18.60
2022-12-09T00:48:41.290Z,19.03
2022-12-09T00:51:11.670Z,19.20
2022-12-09T00:53:40.250Z,18.87
2022-12-09T00:56:08.949Z,19.13
2022-12-09T00:58:37.329Z,18.73
2022-12-09T01:01:06.154Z,19.93
2022-12-09T01:03:36.197Z,18.53
2022-12-09T01:06:10.246Z,19.27
2022-12-09T01:08:39.460Z,18.30
2022-12-09T01:11:12.607Z,24.73
2022-12-09T01:13:41.826Z,24.80
2022-12-09T01:16:15.913Z,25.73
2022-12-09T01:18:46.079Z,24.53
2022-12-09T01:21:14.879Z,23.90
2022-12-09T01:23:43.802Z,23.40
2022-12-09T01:26:12.784Z,21.47
2022-12-09T01:28:41.174Z,21.43
2022-12-09T01:31:12.022Z,21.90
2022-12-09T01:33:40.863Z,21.60
2022-12-09T01:36:15.075Z,21.73
2022-12-09T01:38:43.720Z,21.10
2022-12-09T01:41:12.218Z,22.53
2022-12-09T01:43:41.433Z,21.50
2022-12-09T01:46:10.551Z,22.10
2022-12-09T01:48:42.930Z,21.33
2022-12-09T01:51:15.094Z,21.37
2022-12-09T01:53:46.515Z,22.57
2022-12-09T01:56:24.196Z,21.50
2022-12-09T01:58:55.481Z,21.40
2022-12-09T02:01:23.871Z,22.40
2022-12-09T02:03:52.628Z,22.67
2022-12-09T02:06:22.813Z,23.57
2022-12-09T02:08:51.855Z,21.70
2022-12-09T02:11:29.034Z,21.97
2022-12-09T02:14:04.723Z,21.93
2022-12-09T02:16:38.121Z,23.30
2022-12-09T02:19:22.661Z,21.93
2022-12-09T02:21:58.350Z,27.83
2022-12-09T02:24:39.296Z,27.37
2022-12-09T02:27:14.052Z,26.87
2022-12-09T02:30:05.496Z,31.50
2022-12-09T02:32:55.282Z,34.60
2022-12-09T02:35:29.653Z,28.50
2022-12-09T02:38:01.845Z,25.37
2022-12-09T02:40:35.300Z,22.67
2022-12-09T02:43:07.877Z,22.23
2022-12-09T02:45:38.796Z,23.33
2022-12-09T02:48:09.620Z,22.80
2022-12-09T02:50:42.369Z,22.70
2022-12-09T02:53:15.306Z,22.37
2022-12-09T02:55:46.359Z,23.53
2022-12-09T02:58:15.067Z,22.40
2022-12-09T03:00:44.207Z,22.70
2022-12-09T03:03:16.604Z,21.70
2022-12-09T03:05:53.071Z,22.53
2022-12-09T03:08:32.631Z,22.40
2022-12-09T03:11:04.453Z,22.83
2022-12-09T03:13:49.324Z,23.27
2022-12-09T03:16:23.969Z,22.50
2022-12-09T03:18:56.930Z,22.83
2022-12-09T03:21:31.777Z,24.23
2022-12-09T03:24:01.827Z,23.17
2022-12-09T03:26:33.950Z,22.20
2022-12-09T03:29:05.368Z,22.40
2022-12-09T03:31:36.213Z,21.97
2022-12-09T03:34:07.077Z,22.73
2022-12-09T03:36:40.406Z,22.37
2022-12-09T03:39:13.480Z,22.17
2022-12-09T03:41:46.968Z,23.67
2022-12-09T03:44:20.805Z,23.70
2022-12-09T03:46:49.946Z,22.27
2022-12-09T03:49:19.014Z,24.13
2022-12-09T03:51:57.318Z,23.97
2022-12-09T03:54:29.743Z,23.73
2022-12-09T03:56:59.838Z,23.30
2022-12-09T03:59:32.298Z,23.07
2022-12-09T04:02:00.923Z,22.87
2022-12-09T04:04:32.131Z,21.27
2022-12-09T04:07:02.573Z,23.33
2022-12-09T04:09:30.905Z,22.50
2022-12-09T04:11:59.788Z,22.40
2022-12-09T04:14:28.288Z,25.57
2022-12-09T04:16:56.862Z,26.70
2022-12-09T04:19:25.353Z,24.37
2022-12-09T04:21:53.815Z,25.10
2022-12-09T04:24:23.650Z,24.77
2022-12-09T04:26:52.138Z,31.00
2022-12-09T04:29:20.598Z,45.70
2022-12-09T04:31:48.952Z,28.40
2022-12-09T04:34:17.478Z,27.07
2022-12-09T04:36:46.136Z,24.40
2022-12-09T04:39:14.662Z,25.57
2022-12-09T04:41:44.211Z,25.03
2022-12-09T04:44:12.878Z,25.20
2022-12-09T04:46:41.330Z,24.73
2022-12-09T04:49:10.686Z,21.97
2022-12-09T04:51:40.197Z,22.63
2022-12-09T04:54:13.708Z,23.67
2022-12-09T04:56:43.824Z,22.23
2022-12-09T04:59:12.301Z,22.63
2022-12-09T05:01:40.753Z,21.77
2022-12-09T05:04:10.611Z,22.47
2022-12-09T05:06:39.721Z,20.70
2022-12-09T05:09:13.350Z,21.20
2022-12-09T05:11:43.780Z,20.73
2022-12-09T05:14:12.499Z,22.37
2022-12-09T05:16:41.284Z,21.53
2022-12-09T05:19:10.338Z,20.93
2022-12-09T05:21:38.984Z,22.77
2022-12-09T05:24:08.426Z,22.77
2022-12-09T05:26:37.317Z,20.83
2022-12-09T05:29:07.125Z,23.60
2022-12-09T05:31:35.938Z,23.50
2022-12-09T05:34:04.665Z,23.60
2022-12-09T05:36:33.558Z,22.87
2022-12-09T05:39:02.147Z,23.07
2022-12-09T05:41:30.827Z,22.80
2022-12-09T05:43:59.521Z,23.93
2022-12-09T05:46:30.038Z,22.13
2022-12-09T05:48:58.770Z,21.97
2022-12-09T05:51:29.915Z,24.20
2022-12-09T05:54:01.943Z,26.73
2022-12-09T05:56:30.990Z,25.90
2022-12-09T05:59:00.861Z,23.33
2022-12-09T06:01:31.874Z,23.67
2022-12-09T06:04:00.510Z,23.80
2022-12-09T06:06:31.146Z,23.03
2022-12-09T06:09:02.836Z,23.30
2022-12-09T06:11:32.783Z,21.60
2022-12-09T06:14:01.672Z,22.10
2022-12-09T06:16:34.175Z,22.67
2022-12-09T06:19:02.831Z,26.37
2022-12-09T06:21:31.219Z,24.37
2022-12-09T06:23:59.961Z,23.20
2022-12-09T06:26:30.175Z,23.10
2022-12-09T06:29:01.793Z,22.33
2022-12-09T06:31:31.052Z,21.60
2022-12-09T06:34:02.076Z,23.27
2022-12-09T06:36:32.703Z,23.97
2022-12-09T06:39:09.959Z,24.13
2022-12-09T06:41:39.282Z,23.63
2022-12-09T06:44:08.002Z,23.50
2022-12-09T06:46:36.866Z,27.80
2022-12-09T06:49:07.268Z,24.63
2022-12-09T06:51:35.836Z,23.10
2022-12-09T06:54:07.078Z,24.13
2022-12-09T06:56:36.045Z,22.37
2022-12-09T06:59:07.820Z,24.17
2022-12-09T07:01:37.467Z,22.03
2022-12-09T07:04:08.512Z,23.40
2022-12-09T07:06:39.351Z,22.57
2022-12-09T07:09:10.544Z,22.53
2022-12-09T07:11:40.531Z,23.83
2022-12-09T07:14:10.132Z,24.17
2022-12-09T07:16:39.226Z,27.13
2022-12-09T07:19:09.486Z,23.50
2022-12-09T07:21:38.373Z,26.60
2022-12-09T07:24:07.653Z,27.60
2022-12-09T07:26:36.483Z,27.57
2022-12-09T07:29:06.029Z,28.27
2022-12-09T07:31:36.394Z,26.50
2022-12-09T07:34:09.307Z,23.50
2022-12-09T07:36:39.345Z,31.83
2022-12-09T07:39:10.289Z,24.13
2022-12-09T07:41:38.712Z,27.37
2022-12-09T07:44:07.458Z,28.27
2022-12-09T07:46:36.367Z,25.93
2022-12-09T07:49:06.665Z,29.13
2022-12-09T07:51:35.699Z,25.93
2022-12-09T07:54:06.182Z,28.10
2022-12-09T07:56:34.556Z,29.13
2022-12-09T07:59:06.595Z,25.80
2022-12-09T08:01:35.707Z,33.20
2022-12-09T08:04:06.249Z,28.20
2022-12-09T08:06:35.813Z,29.87
2022-12-09T08:09:09.452Z,36.13
2022-12-09T08:11:38.554Z,28.13
2022-12-09T08:14:13.058Z,29.03
2022-12-09T08:16:42.592Z,27.30
2022-12-09T08:19:12.171Z,30.40
2022-12-09T08:21:41.137Z,29.37
2022-12-09T08:24:13.029Z,30.77
2022-12-09T08:26:42.525Z,28.03
2022-12-09T08:29:13.438Z,32.93
2022-12-09T08:31:44.391Z,32.57
2022-12-09T08:34:14.336Z,34.13
2022-12-09T08:36:44.258Z,32.20
2022-12-09T08:39:15.557Z,30.87
2022-12-09T08:41:45.472Z,37.93
2022-12-09T08:44:16.228Z,69.87
2022-12-09T08:46:47.346Z,64.67
2022-12-09T08:49:19.153Z,35.00
2022-12-09T08:51:48.633Z,30.00
2022-12-09T08:54:19.119Z,28.47
2022-12-09T08:56:49.512Z,29.97
2022-12-09T08:59:19.469Z,30.17
2022-12-09T09:01:48.648Z,31.70
2022-12-09T09:04:20.529Z,32.90
2022-12-09T09:06:51.513Z,28.90
2022-12-09T09:09:23.356Z,30.37
2022-12-09T09:11:52.083Z,30.20
2022-12-09T09:14:21.036Z,30.60
2022-12-09T09:16:49.963Z,28.93
2022-12-09T09:19:20.361Z,30.43
2022-12-09T09:21:49.712Z,30.37
2022-12-09T09:24:20.707Z,31.20
2022-12-09T09:26:52.503Z,33.63
2022-12-09T09:29:23.021Z,29.47
2022-12-09T09:31:54.585Z,29.23
2022-12-09T09:34:24.985Z,30.87
2022-12-09T09:36:54.109Z,31.70
2022-12-09T09:39:23.265Z,34.90
2022-12-09T09:41:57.188Z,32.03
2022-12-09T09:44:28.908Z,28.37
2022-12-09T09:46:59.475Z,30.67
2022-12-09T09:49:37.587Z,30.13
2022-12-09T09:52:10.259Z,30.23
2022-12-09T09:54:39.387Z,29.70
2022-12-09T09:57:15.937Z,28.70
2022-12-09T10:00:06.968Z,29.23
2022-12-09T10:03:02.786Z,30.70
2022-12-09T10:05:35.694Z,28.90
2022-12-09T10:08:20.891Z,28.80
2022-12-09T10:11:00.789Z,26.07
2022-12-09T10:13:47.183Z,25.53
2022-12-09T10:16:19.126Z,27.00
2022-12-09T10:19:08.140Z,23.63
2022-12-09T10:21:42.492Z,26.60
2022-12-09T10:24:23.437Z,27.57
2022-12-09T10:27:00.008Z,25.27
2022-12-09T10:29:46.606Z,24.93
2022-12-09T10:32:19.594Z,26.07
2022-12-09T10:34:49.637Z,26.50
2022-12-09T10:37:29.159Z,24.67
2022-12-09T10:40:05.039Z,24.17
2022-12-09T10:42:59.398Z,22.93
2022-12-09T10:45:52.551Z,24.20
2022-12-09T10:48:25.529Z,23.27
2022-12-09T10:50:58.654Z,25.70
2022-12-09T10:53:29.294Z,28.13
2022-12-09T10:56:00.304Z,22.87
2022-12-09T10:58:29.843Z,40.67
2022-12-09T11:01:10.354Z,36.10
2022-12-09T11:03:41.429Z,22.67
2022-12-09T11:06:21.999Z,24.23
2022-12-09T11:08:56.668Z,22.83
2022-12-09T11:11:42.170Z,21.47
2022-12-09T11:14:24.021Z,23.67
2022-12-09T11:16:57.204Z,27.10
2022-12-09T11:19:35.018Z,23.47
2022-12-09T11:22:36.601Z,23.77
2022-12-09T11:25:24.858Z,24.60
2022-12-09T11:27:56.167Z,25.63
2022-12-09T11:30:27.024Z,23.73
2022-12-09T11:33:06.123Z,23.87
2022-12-09T11:35:40.282Z,23.07
2022-12-09T11:38:22.942Z,24.57
2022-12-09T11:41:02.896Z,22.83
2022-12-09T11:43:34.855Z,31.60
2022-12-09T11:46:10.410Z,24.70
2022-12-09T11:48:44.022Z,25.77
2022-12-09T11:51:22.494Z,25.53
2022-12-09T11:54:01.660Z,23.10
2022-12-09T11:56:32.092Z,24.80
2022-12-09T11:59:04.266Z,29.65
2022-12-09T12:01:45.665Z,27.70
2022-12-09T12:04:18.068Z,25.83
2022-12-09T12:06:50.475Z,25.73
2022-12-09T12:09:25.066Z,25.90
2022-12-09T12:12:08.550Z,26.77
2022-12-09T12:14:39.433Z,24.57
2022-12-09T12:17:16.525Z,26.17
2022-12-09T12:19:50.556Z,30.27
2022-12-09T12:22:29.079Z,25.73
2022-12-09T12:25:26.318Z,26.40
2022-12-09T12:28:19.024Z,24.90
2022-12-09T12:30:55.868Z,26.23
2022-12-09T12:36:37.445Z,25.60
2022-12-09T12:39:15.295Z,26.67
2022-12-09T12:41:52.336Z,26.27
2022-12-09T12:44:52.020Z,26.47
2022-12-09T12:47:25.732Z,25.00
2022-12-09T12:50:26.615Z,28.03
2022-12-09T12:53:05.323Z,25.60
2022-12-09T12:55:53.160Z,26.67
2022-12-09T12:58:44.613Z,28.07
2022-12-09T13:01:21.913Z,25.77
2022-12-09T13:03:58.805Z,27.50
2022-12-09T13:06:36.777Z,27.83
2022-12-09T13:09:12.710Z,26.93
2022-12-09T13:11:52.270Z,28.77
2022-12-09T13:14:26.070Z,27.80
2022-12-09T13:16:55.075Z,28.80
2022-12-09T13:19:27.771Z,29.23
2022-12-09T13:21:56.491Z,30.77
2022-12-09T13:24:31.621Z,29.03
2022-12-09T13:27:04.916Z,28.20
2022-12-09T13:29:40.984Z,28.30
2022-12-09T13:32:33.539Z,28.47
2022-12-09T13:35:08.145Z,28.97
2022-12-09T13:37:57.171Z,29.87
2022-12-09T13:40:39.092Z,29.10
2022-12-09T13:43:25.919Z,30.23
2022-12-09T13:45:57.524Z,29.33
2022-12-09T13:48:47.877Z,29.83
2022-12-09T13:51:17.742Z,29.13
2022-12-09T13:53:50.681Z,33.10
2022-12-09T13:56:25.456Z,32.60
2022-12-09T13:59:18.519Z,36.33
2022-12-09T14:01:53.347Z,32.37
2022-12-09T14:04:26.942Z,32.93
2022-12-09T14:07:10.064Z,31.17
2022-12-09T14:09:47.290Z,31.57
2022-12-09T14:13:06.890Z,30.00
2022-12-09T14:15:38.203Z,30.80
2022-12-09T14:18:22.607Z,30.03
2022-12-09T14:21:25.921Z,30.83
2022-12-09T14:24:31.571Z,28.20
2022-12-09T14:27:26.301Z,29.87
2022-12-09T14:29:56.399Z,28.97
2022-12-09T14:32:28.249Z,30.43
2022-12-09T14:35:21.028Z,29.83
2022-12-09T14:38:14.423Z,25.33
2022-12-09T14:40:55.957Z,26.67
2022-12-09T14:43:52.020Z,25.27
2022-12-09T14:46:25.368Z,25.80
2022-12-09T14:48:58.919Z,26.97
2022-12-09T14:51:31.490Z,29.20
2022-12-09T14:54:02.097Z,30.63
2022-12-09T14:56:32.152Z,29.10
2022-12-09T14:59:06.738Z,27.67
2022-12-09T15:01:49.620Z,29.63
2022-12-09T15:04:25.437Z,26.90
2022-12-09T15:07:12.587Z,28.43
2022-12-09T15:09:50.737Z,26.03
2022-12-09T15:12:19.587Z,26.83
2022-12-09T15:14:54.295Z,27.37
2022-12-09T15:17:27.083Z,28.47
2022-12-09T15:20:00.804Z,29.80
2022-12-09T15:22:32.444Z,28.47
2022-12-09T15:25:02.620Z,28.17
2022-12-09T15:27:31.605Z,29.13
2022-12-09T15:30:01.546Z,28.27
2022-12-09T15:32:31.986Z,28.40
2022-12-09T15:35:20.223Z,27.37
2022-12-09T15:37:51.217Z,30.57
2022-12-09T15:40:22.443Z,29.43
2022-12-09T15:42:53.966Z,29.67
2022-12-09T15:45:25.979Z,29.63
2022-12-09T15:47:58.443Z,26.80
2022-12-09T15:50:30.060Z,26.50
2022-12-09T15:53:05.897Z,29.70
2022-12-09T15:55:45.441Z,33.10
2022-12-09T15:58:16.499Z,31.37
2022-12-09T16:00:49.041Z,31.47
2022-12-09T16:03:22.025Z,26.77
2022-12-09T16:05:53.556Z,29.77
2022-12-09T16:08:23.065Z,26.07
2022-12-09T16:10:53.335Z,27.20
2022-12-09T16:13:22.348Z,29.27
2022-12-09T16:15:54.894Z,25.77
2022-12-09T16:18:25.675Z,32.03
2022-12-09T16:21:22.697Z,25.50
2022-12-09T16:23:56.399Z,27.53
2022-12-09T16:26:29.999Z,25.50
2022-12-09T16:29:00.292Z,25.93
2022-12-09T16:31:30.984Z,26.33
2022-12-09T16:33:59.589Z,24.93
2022-12-09T16:36:30.877Z,25.83
2022-12-09T16:39:33.576Z,26.83
2022-12-09T16:42:03.389Z,23.53
2022-12-09T16:44:34.878Z,24.40
2022-12-09T16:47:16.310Z,26.73
2022-12-09T16:49:47.343Z,25.77
2022-12-09T16:52:17.480Z,32.27
2022-12-09T16:54:47.313Z,28.67
2022-12-09T16:57:17.186Z,27.70
2022-12-09T16:59:46.768Z,29.67
2022-12-09T17:02:22.262Z,28.40
2022-12-09T17:04:52.040Z,40.00
2022-12-09T17:07:20.420Z,29.33
2022-12-09T17:09:48.855Z,30.20
2022-12-09T17:12:17.214Z,29.03
2022-12-09T17:14:45.821Z,27.73
2022-12-09T17:17:14.386Z,28.33
2022-12-09T17:19:44.337Z,28.70
2022-12-09T17:22:12.588Z,27.03
2022-12-09T17:24:41.162Z,27.43
2022-12-09T17:27:09.398Z,26.87
2022-12-09T17:29:38.074Z,26.50
2022-12-09T17:32:07.298Z,29.07
2022-12-09T17:34:35.541Z,26.30
2022-12-09T17:37:05.230Z,26.13
2022-12-09T17:39:33.760Z,26.63
2022-12-09T17:42:02.075Z,26.10
2022-12-09T17:44:30.414Z,25.70
2022-12-09T17:46:58.793Z,25.17
2022-12-09T17:49:27.158Z,25.93
2022-12-09T17:51:55.603Z,29.17
2022-12-09T17:54:25.820Z,30.47
2022-12-09T17:56:54.186Z,29.10
2022-12-09T17:59:22.408Z,29.70
2022-12-09T18:01:50.738Z,27.67
2022-12-09T18:04:18.913Z,29.90
2022-12-09T18:06:47.745Z,28.93
2022-12-09T18:09:18.831Z,27.57
2022-12-09T18:11:48.890Z,30.33
2022-12-09T18:14:17.991Z,32.57
2022-12-09T18:16:49.257Z,30.77
2022-12-09T18:19:20.862Z,29.93
2022-12-09T18:21:49.270Z,31.37
2022-12-09T18:24:18.399Z,29.93
2022-12-09T18:26:48.269Z,30.93
2022-12-09T18:29:18.479Z,29.73
2022-12-09T18:31:50.457Z,30.17
2022-12-09T18:34:21.182Z,31.23
2022-12-09T18:36:49.682Z,29.53
2022-12-09T18:39:17.957Z,28.80
2022-12-09T18:41:46.735Z,32.13
2022-12-09T18:44:17.789Z,33.10
2022-12-09T18:46:48.885Z,34.67
2022-12-09T18:49:19.634Z,35.97
2022-12-09T18:51:49.191Z,36.17
2022-12-09T18:54:19.705Z,35.37
2022-12-09T18:56:48.226Z,35.60
2022-12-09T18:59:18.072Z,34.10
2022-12-09T19:01:47.636Z,36.27
2022-12-09T19:04:19.633Z,36.00
2022-12-09T19:06:50.527Z,36.40
2022-12-09T19:09:20.874Z,35.70
2022-12-09T19:11:50.735Z,39.13
2022-12-09T19:14:24.781Z,40.20
2022-12-09T19:16:53.522Z,40.23
2022-12-09T19:19:24.237Z,38.93
2022-12-09T19:21:52.991Z,39.17
2022-12-09T19:24:23.699Z,41.47
2022-12-09T19:26:54.017Z,43.40
2022-12-09T19:29:28.121Z,42.97
2022-12-09T19:31:58.200Z,43.47
2022-12-09T19:34:29.140Z,43.00
2022-12-09T19:37:00.319Z,41.60
2022-12-09T19:39:31.339Z,42.23
2022-12-09T19:42:00.304Z,41.17
2022-12-09T19:44:59.523Z,40.70
2022-12-09T19:47:18.780Z,42.37
2022-12-09T19:49:47.164Z,41.30
2022-12-09T19:52:15.334Z,39.87
2022-12-09T19:54:43.786Z,39.80
2022-12-09T19:57:12.925Z,38.70
2022-12-09T19:59:42.637Z,38.00
2022-12-09T20:02:14.485Z,38.30
2022-12-09T20:04:50.821Z,35.33
2022-12-09T20:07:20.287Z,36.97
2022-12-09T20:09:48.886Z,38.07
2022-12-09T20:12:17.265Z,37.80
2022-12-09T20:14:46.995Z,38.17
2022-12-09T20:17:17.401Z,37.07
2022-12-09T20:19:45.642Z,35.53
2022-12-09T20:22:14.178Z,35.37
2022-12-09T20:24:43.319Z,36.00
2022-12-09T20:27:11.912Z,35.97
2022-12-09T20:29:40.110Z,35.90
2022-12-09T20:32:10.641Z,36.63
2022-12-09T20:34:39.247Z,37.87
2022-12-09T20:37:07.774Z,36.87
2022-12-09T20:39:36.142Z,36.83
2022-12-09T20:42:04.461Z,34.40
2022-12-09T20:44:34.701Z,32.87
2022-12-09T20:47:03.225Z,34.37
2022-12-09T20:49:32.801Z,38.33
2022-12-09T20:52:01.118Z,46.60
2022-12-09T20:54:29.692Z,39.50
2022-12-09T20:56:57.944Z,34.93
2022-12-09T20:59:26.472Z,33.50
2022-12-09T21:01:56.032Z,33.77
2022-12-09T21:04:24.543Z,34.13
2022-12-09T21:06:54.407Z,35.50
2022-12-09T21:09:27.230Z,35.67
2022-12-09T21:11:58.104Z,35.70
2022-12-09T21:14:33.084Z,34.97
2022-12-09T21:17:02.177Z,34.30
2022-12-09T21:19:32.676Z,38.43
2022-12-09T21:22:02.449Z,35.67
2022-12-09T21:24:33.982Z,30.20
2022-12-09T21:27:02.164Z,33.70
2022-12-09T21:29:32.411Z,31.17
2022-12-09T21:32:02.020Z,28.53
2022-12-09T21:34:30.559Z,30.53
2022-12-09T21:36:58.961Z,31.00
2022-12-09T21:39:29.033Z,29.80
2022-12-09T21:41:57.249Z,29.80
2022-12-09T21:44:27.163Z,28.60
2022-12-09T21:46:55.881Z,29.13
2022-12-09T21:49:24.305Z,30.30
2022-12-09T21:51:52.933Z,30.30
2022-12-09T21:54:21.199Z,28.33
2022-12-09T21:56:50.784Z,29.87
2022-12-09T21:59:19.150Z,29.70
2022-12-09T22:01:48.233Z,29.33
2022-12-09T22:04:17.937Z,27.93
2022-12-09T22:06:47.630Z,28.87
2022-12-09T22:09:17.268Z,27.53
2022-12-09T22:11:45.928Z,28.60
2022-12-09T22:14:15.533Z,28.87
2022-12-09T22:16:46.112Z,27.37
2022-12-09T22:19:18.297Z,28.00
2022-12-09T22:21:47.335Z,29.03
2022-12-09T22:24:16.218Z,28.23
2022-12-09T22:26:45.215Z,29.03
2022-12-09T22:29:16.416Z,30.10
2022-12-09T22:31:45.572Z,28.17
2022-12-09T22:34:16.875Z,28.40
2022-12-09T22:36:45.748Z,28.83
2022-12-09T22:39:18.436Z,30.77
2022-12-09T22:41:47.042Z,27.93
2022-12-09T22:44:18.358Z,30.37
2022-12-09T22:46:47.487Z,29.13
2022-12-09T22:49:16.602Z,29.93
2022-12-09T22:51:46.006Z,29.50
2022-12-09T22:54:15.189Z,32.07
2022-12-09T22:56:44.654Z,28.90
2022-12-09T22:59:14.715Z,32.27
2022-12-09T23:01:46.491Z,31.43
2022-12-09T23:04:16.209Z,29.37
2022-12-09T23:06:47.032Z,30.97
2022-12-09T23:09:18.704Z,30.67
2022-12-09T23:11:47.241Z,30.80
2022-12-09T23:14:15.913Z,31.93
2022-12-09T23:16:46.353Z,31.07
2022-12-09T23:19:14.838Z,29.00
2022-12-09T23:21:44.249Z,30.53
2022-12-09T23:24:18.434Z,28.70
2022-12-09T23:26:50.957Z,30.23
2022-12-09T23:29:21.463Z,31.13
2022-12-09T23:31:51.166Z,30.17
2022-12-09T23:34:20.030Z,30.67
2022-12-09T23:36:48.623Z,30.53
2022-12-09T23:39:19.341Z,30.30
2022-12-09T23:41:48.114Z,31.20
2022-12-09T23:44:18.790Z,29.93
2022-12-09T23:46:47.307Z,30.57
2022-12-09T23:49:17.487Z,30.87
2022-12-09T23:51:45.984Z,32.20
2022-12-09T23:54:16.069Z,31.93
2022-12-09T23:56:49.811Z,31.07
2022-12-09T23:59:21.062Z,31.13
